Mateus Leme, Brazil
Current Conditions -  °F | °C
As of 7:16 PM on Friday 21 Nov 2014 (Local Time) from SBPR Reporting Station
Scattered Clouds Scattered Clouds  
Wind Chill: 82°   Ceiling: Unl
Heat Index: 82°   Visibility: 6mi
Dew Point: 59°   Wind: 10mph
Humidity: 45%   Direction: 120°ESE
Pressure: 30"   Gusts: NA
Location:  19.99°S, 44.43°W
Report Text: SBPR 212116Z 12009KT 9999 SCT025 28/15 Q1016
Loading
Personal Weather Stations






























Interactive Weather Map New forecast layout! Learn more

10-Day Weather Forecast

Advertisements
Track Severe Weather on mobile